Time;durP1;ratioP1;P1;durP2;ratioP2;P2;SDS_P1;SDS_P2;PMS_P1;PMS_P2;Temp;Humidity;BMP_temperature;BMP_pressure;BME280_temperature;BME280_humidity;BME280_pressure;Samples;Min_cycle;Max_cycle;Signal;HPM_P1;HPM_P2
2022/05/02 00:02:11;;;;;;;2.63;1.30;;;;;;;10.38;65.54;102286.38;5032940;28;20810;-70
2022/05/02 00:04:37;;;;;;;2.13;1.40;;;;;;;10.36;65.37;102280.28;5029680;28;20749;-70
2022/05/02 00:07:03;;;;;;;2.17;1.40;;;;;;;10.36;65.86;102280.28;5030515;28;20210;-70
2022/05/02 00:09:28;;;;;;;1.77;1.30;;;;;;;10.32;65.71;102281.00;5032555;28;20178;-69
2022/05/02 00:11:53;;;;;;;2.47;1.20;;;;;;;10.28;66.24;102271.41;5029414;28;20229;-70
2022/05/02 00:14:19;;;;;;;1.50;1.40;;;;;;;10.29;64.98;102268.03;5027966;28;20226;-70
2022/05/02 00:16:44;;;;;;;1.17;1.03;;;;;;;10.32;63.96;102263.91;5031213;28;20611;-70
2022/05/02 00:19:09;;;;;;;1.73;1.10;;;;;;;10.33;63.87;102263.09;5015634;28;20279;-70
2022/05/02 00:21:35;;;;;;;3.10;1.30;;;;;;;10.18;65.19;102259.03;5032524;28;20217;-70
2022/05/02 00:24:00;;;;;;;3.43;1.10;;;;;;;10.08;65.10;102256.84;5031852;28;20184;-70
2022/05/02 00:26:25;;;;;;;2.90;1.27;;;;;;;10.02;65.45;102261.69;5032367;28;20248;-70
2022/05/02 00:28:51;;;;;;;1.33;1.23;;;;;;;9.97;65.67;102261.50;5031735;28;20588;-70
2022/05/02 00:31:16;;;;;;;1.97;1.20;;;;;;;9.94;66.75;102255.34;5027484;28;20723;-70
2022/05/02 00:33:41;;;;;;;1.20;1.10;;;;;;;9.96;66.83;102261.41;5012817;28;20246;-70
2022/05/02 00:36:07;;;;;;;2.10;1.30;;;;;;;9.90;66.84;102253.47;5012049;28;20246;-71
2022/05/02 00:38:32;;;;;;;3.87;1.50;;;;;;;9.87;67.20;102261.88;5012310;28;20187;-70
2022/05/02 00:40:58;;;;;;;3.73;1.43;;;;;;;9.85;67.64;102240.47;5011747;28;20187;-70
2022/05/02 00:43:23;;;;;;;1.37;1.27;;;;;;;9.80;66.75;102246.19;5012226;28;20352;-70
2022/05/02 00:45:49;;;;;;;1.30;1.20;;;;;;;9.73;67.79;102250.13;5011801;28;20269;-70
2022/05/02 00:48:15;;;;;;;1.53;1.40;;;;;;;9.74;67.21;102259.59;5027237;28;20202;-70
2022/05/02 00:50:42;;;;;;;3.63;1.57;;;;;;;9.71;66.84;102251.75;5029575;28;20198;-70
2022/05/02 00:53:10;;;;;;;3.30;1.20;;;;;;;9.64;66.53;102242.03;5011952;28;20215;-69
2022/05/02 00:55:37;;;;;;;1.83;1.40;;;;;;;9.60;66.84;102246.97;5012020;28;20550;-71
2022/05/02 00:58:03;;;;;;;2.50;1.53;;;;;;;9.54;68.38;102251.81;5011551;28;20226;-70
2022/05/02 01:00:30;;;;;;;1.83;1.60;;;;;;;9.37;69.21;102252.69;5011896;28;20533;-70
2022/05/02 01:02:56;;;;;;;2.10;1.30;;;;;;;9.36;69.14;102249.25;5011486;28;20276;-70
2022/05/02 01:05:21;;;;;;;2.37;1.40;;;;;;;9.21;69.00;102251.09;5012087;28;20186;-70
2022/05/02 01:07:46;;;;;;;2.03;1.40;;;;;;;9.20;69.47;102246.81;5022308;28;20203;-70
2022/05/02 01:10:21;;;;;;;2.60;1.43;;;;;;;9.13;69.19;102247.31;5031490;28;20248;-70
2022/05/02 01:12:48;;;;;;;1.77;1.60;;;;;;;9.02;69.62;102251.03;5030646;28;20201;-70
2022/05/02 01:15:16;;;;;;;1.83;1.50;;;;;;;8.98;69.48;102253.38;5031197;28;20206;-70
2022/05/02 01:17:41;;;;;;;2.30;1.60;;;;;;;8.94;71.01;102246.38;5031516;28;20297;-70
2022/05/02 01:20:08;;;;;;;1.70;1.40;;;;;;;8.79;70.27;102254.16;5030766;28;20269;-70
2022/05/02 01:22:34;;;;;;;2.50;1.53;;;;;;;8.64;71.62;102255.97;5031202;28;20606;-70
2022/05/02 01:24:59;;;;;;;2.63;1.70;;;;;;;8.67;71.64;102250.97;5027970;28;20273;-70
2022/05/02 01:27:24;;;;;;;2.17;1.60;;;;;;;8.68;70.93;102255.31;5011495;28;20187;-70
2022/05/02 01:29:50;;;;;;;3.07;1.60;;;;;;;8.52;70.30;102252.78;5014698;28;20225;-70
2022/05/02 01:32:15;;;;;;;2.47;1.60;;;;;;;8.56;71.38;102251.25;5034036;28;20253;-70
2022/05/02 01:34:41;;;;;;;3.97;1.87;;;;;;;8.56;71.68;102248.69;5049587;28;20217;-70
2022/05/02 01:37:12;;;;;;;2.90;1.87;;;;;;;8.43;71.77;102247.22;5043659;28;20202;-71
2022/05/02 01:39:37;;;;;;;2.53;1.80;;;;;;;8.39;71.75;102258.06;5030800;28;20648;-70
2022/05/02 01:42:05;;;;;;;3.13;2.13;;;;;;;8.35;71.94;102255.28;5026938;28;20225;-70
2022/05/02 01:44:31;;;;;;;1.87;1.33;;;;;;;8.27;73.04;102254.91;5019156;28;20772;-70
2022/05/02 01:46:57;;;;;;;3.33;2.00;;;;;;;8.25;72.76;102261.59;5028725;28;20202;-70
2022/05/02 01:49:22;;;;;;;2.63;1.57;;;;;;;8.32;73.48;102256.03;5030278;28;20198;-70
2022/05/02 01:51:48;;;;;;;3.13;1.40;;;;;;;8.32;73.47;102257.69;5030697;28;20215;-70
2022/05/02 01:54:14;;;;;;;2.93;2.00;;;;;;;8.25;73.45;102250.53;5030386;28;20199;-69
2022/05/02 01:56:39;;;;;;;1.87;1.70;;;;;;;8.23;73.01;102244.44;5030642;28;20190;-70
2022/05/02 01:59:05;;;;;;;3.17;2.17;;;;;;;8.18;73.44;102235.66;5026563;28;20195;-70
2022/05/02 02:01:31;;;;;;;2.40;1.47;;;;;;;8.20;72.88;102241.75;5021933;28;20268;-70
2022/05/02 02:03:59;;;;;;;3.70;1.93;;;;;;;8.16;73.26;102232.16;5026618;28;20237;-70
2022/05/02 02:06:25;;;;;;;2.10;1.90;;;;;;;8.12;73.68;102241.34;5025365;28;20201;-70
2022/05/02 02:08:51;;;;;;;3.53;2.17;;;;;;;8.06;73.74;102233.34;5026830;28;20201;-70
2022/05/02 02:11:16;;;;;;;3.90;2.20;;;;;;;8.04;73.47;102232.41;5026676;28;20651;-70
2022/05/02 02:13:42;;;;;;;2.03;1.70;;;;;;;8.02;73.31;102236.53;5022542;28;20217;-70
2022/05/02 02:16:09;;;;;;;3.23;2.13;;;;;;;7.91;74.09;102235.13;5025899;28;20245;-72
2022/05/02 02:18:38;;;;;;;2.23;1.90;;;;;;;7.96;74.87;102238.78;5030770;28;20221;-70
2022/05/02 02:21:04;;;;;;;2.60;2.30;;;;;;;7.97;74.74;102234.56;5025972;28;20526;-70
2022/05/02 02:23:30;;;;;;;2.43;1.80;;;;;;;7.84;75.32;102237.28;5028357;28;20221;-70
2022/05/02 02:25:56;;;;;;;2.70;1.93;;;;;;;7.95;74.32;102233.59;5025607;28;20199;-70
2022/05/02 02:28:21;;;;;;;3.20;2.30;;;;;;;7.90;74.33;102242.69;5026464;28;20198;-70
2022/05/02 02:30:46;;;;;;;3.13;2.10;;;;;;;7.82;75.67;102238.84;5029494;28;20244;-70
2022/05/02 02:33:12;;;;;;;2.67;1.77;;;;;;;7.91;75.46;102244.44;5030265;28;20754;-70
2022/05/02 02:35:38;;;;;;;3.93;1.90;;;;;;;7.92;74.47;102244.53;5025861;28;20213;-69
2022/05/02 02:38:04;;;;;;;3.40;1.90;;;;;;;7.92;74.57;102249.63;5016549;28;20195;-70
2022/05/02 02:40:30;;;;;;;2.10;1.83;;;;;;;7.95;74.01;102251.44;5026155;28;20198;-70
2022/05/02 02:42:56;;;;;;;2.10;1.90;;;;;;;7.96;73.86;102248.97;5021594;28;20214;-70
2022/05/02 02:45:21;;;;;;;2.10;1.90;;;;;;;7.93;74.08;102256.47;5023987;28;20217;-70
2022/05/02 02:47:46;;;;;;;2.23;1.83;;;;;;;7.92;74.97;102247.06;5021010;28;20567;-70
2022/05/02 02:50:12;;;;;;;3.00;1.90;;;;;;;7.92;75.15;102236.88;5027617;28;20198;-70
2022/05/02 02:52:37;;;;;;;2.33;2.13;;;;;;;7.94;74.30;102244.59;5020353;28;20347;-71
2022/05/02 02:55:03;;;;;;;2.40;1.87;;;;;;;7.86;75.04;102239.09;5024411;28;20236;-70
2022/05/02 02:57:28;;;;;;;2.50;1.90;;;;;;;7.85;74.62;102234.81;5028701;28;20274;-70
2022/05/02 02:59:54;;;;;;;3.23;1.93;;;;;;;7.86;74.75;102238.22;5023265;28;20604;-70
2022/05/02 03:02:19;;;;;;;2.00;1.70;;;;;;;7.80;74.46;102241.34;5027154;28;20214;-70
2022/05/02 03:07:29;;;;;;;2.60;1.70;;;;;;;7.79;74.33;102231.06;5029592;28;20186;-70
2022/05/02 03:09:57;;;;;;;2.33;1.90;;;;;;;7.81;73.82;102226.91;5018662;28;20197;-70
2022/05/02 03:12:22;;;;;;;1.87;1.67;;;;;;;7.73;75.04;102221.41;5029642;28;20222;-70
2022/05/02 03:14:47;;;;;;;2.03;1.83;;;;;;;7.71;74.68;102228.09;5025468;28;20210;-70
2022/05/02 03:17:13;;;;;;;2.07;1.60;;;;;;;7.71;75.35;102229.78;5026420;28;20194;-70
2022/05/02 03:19:39;;;;;;;2.23;1.77;;;;;;;7.64;75.16;102226.03;5028593;28;20178;-70
2022/05/02 03:22:05;;;;;;;2.93;1.90;;;;;;;7.58;75.60;102223.16;5028490;28;20210;-70
2022/05/02 03:24:31;;;;;;;1.80;1.70;;;;;;;7.60;75.30;102218.16;5028771;28;20190;-70
2022/05/02 03:26:57;;;;;;;3.00;1.80;;;;;;;7.49;76.58;102214.13;5020776;28;20248;-70
2022/05/02 03:29:22;;;;;;;2.30;2.00;;;;;;;7.49;76.75;102214.13;5027932;28;20190;-70
2022/05/02 03:31:47;;;;;;;3.30;1.70;;;;;;;7.47;76.89;102214.03;5014136;28;20225;-70
2022/05/02 03:34:13;;;;;;;1.93;1.60;;;;;;;7.53;76.78;102211.84;5004117;28;20213;-70
2022/05/02 03:36:38;;;;;;;1.70;1.40;;;;;;;7.44;76.05;102213.91;5025287;28;20218;-72
2022/05/02 03:39:03;;;;;;;2.20;1.73;;;;;;;7.36;76.74;102211.72;5030141;28;20182;-70
2022/05/02 03:41:29;;;;;;;2.20;2.00;;;;;;;7.42;76.75;102214.59;5031475;28;20190;-71
2022/05/02 03:43:55;;;;;;;3.47;1.97;;;;;;;7.29;75.70;102223.28;5031883;28;20725;-70
2022/05/02 03:46:21;;;;;;;2.60;1.77;;;;;;;7.30;76.10;102216.47;5026631;28;20198;-71
2022/05/02 03:48:46;;;;;;;3.17;1.70;;;;;;;7.22;75.75;102226.25;5032468;28;20193;-71
2022/05/02 03:51:11;;;;;;;2.40;1.60;;;;;;;7.28;75.67;102228.28;5030540;28;20209;-71
2022/05/02 03:53:36;;;;;;;3.17;1.90;;;;;;;7.33;75.16;102227.72;5032702;28;20221;-70
2022/05/02 03:56:02;;;;;;;3.33;1.90;;;;;;;7.21;76.40;102226.16;5027208;28;20384;-71
2022/05/02 03:58:28;;;;;;;2.43;2.10;;;;;;;7.29;76.19;102224.94;5033340;28;20245;-70
2022/05/02 04:00:53;;;;;;;4.47;2.80;;;;;;;7.25;76.36;102228.97;5029310;28;20197;-69
2022/05/02 04:03:18;;;;;;;3.20;2.70;;;;;;;7.26;76.74;102214.56;5026646;28;20260;-71
2022/05/02 04:05:44;;;;;;;3.33;2.60;;;;;;;7.28;76.13;102229.13;5030653;28;20194;-71
2022/05/02 04:08:09;;;;;;;4.87;2.70;;;;;;;7.28;75.50;102218.94;5032826;28;20205;-71
2022/05/02 04:10:34;;;;;;;4.00;2.33;;;;;;;7.32;75.28;102218.31;5030562;28;20198;-71
2022/05/02 04:12:59;;;;;;;3.03;2.40;;;;;;;7.28;75.93;102220.63;5028964;28;20214;-71
2022/05/02 04:15:25;;;;;;;3.67;1.97;;;;;;;7.28;75.64;102218.09;5020484;28;20211;-71
2022/05/02 04:17:50;;;;;;;4.33;1.90;;;;;;;7.27;74.47;102222.28;5029611;28;20187;-70
2022/05/02 04:20:15;;;;;;;3.77;1.93;;;;;;;7.26;75.02;102223.09;5031242;28;20190;-70
2022/05/02 04:22:41;;;;;;;3.23;2.03;;;;;;;7.28;75.35;102218.94;5024224;28;20214;-71
2022/05/02 04:25:07;;;;;;;3.37;1.97;;;;;;;7.37;75.33;102221.13;5032853;28;20190;-70
2022/05/02 04:27:33;;;;;;;4.00;1.83;;;;;;;7.43;75.99;102218.91;5032791;28;20324;-71
2022/05/02 04:29:58;;;;;;;3.50;1.63;;;;;;;7.54;73.97;102226.31;5032058;28;20595;-70
2022/05/02 04:32:24;;;;;;;2.87;1.90;;;;;;;7.63;74.28;102221.72;5031809;28;20601;-71
2022/05/02 04:34:49;;;;;;;3.60;1.77;;;;;;;7.65;73.21;102216.72;5033355;28;20785;-71
2022/05/02 04:37:14;;;;;;;1.90;1.70;;;;;;;7.72;73.47;102223.88;5043736;28;20182;-71
2022/05/02 04:39:40;;;;;;;4.23;2.00;;;;;;;7.75;72.26;102226.59;5031840;28;20217;-70
2022/05/02 04:42:06;;;;;;;2.07;1.37;;;;;;;7.82;72.15;102229.53;5032531;28;20594;-70
2022/05/02 04:44:32;;;;;;;4.43;1.87;;;;;;;7.91;71.46;102224.91;5032484;28;20228;-71
2022/05/02 04:46:58;;;;;;;6.57;2.10;;;;;;;7.98;71.89;102224.47;5030499;28;20183;-71
2022/05/02 04:49:23;;;;;;;4.80;2.00;;;;;;;8.05;70.64;102223.06;5031483;28;20202;-71
2022/05/02 04:51:48;;;;;;;4.80;1.90;;;;;;;8.11;70.89;102226.81;5033816;28;20210;-71
2022/05/02 04:54:14;;;;;;;3.97;1.87;;;;;;;8.19;70.45;102229.75;5052528;28;20189;-70
2022/05/02 04:56:39;;;;;;;6.17;1.90;;;;;;;8.28;69.10;102235.34;5050763;28;20287;-71
2022/05/02 04:59:04;;;;;;;5.33;1.90;;;;;;;8.35;70.47;102235.78;5052413;28;20186;-71
2022/05/02 05:01:31;;;;;;;4.00;1.83;;;;;;;8.39;69.73;102224.88;5051835;28;20235;-71
2022/05/02 05:03:56;;;;;;;2.00;1.80;;;;;;;8.48;70.39;102230.47;5051967;28;20211;-71
2022/05/02 05:06:21;;;;;;;3.53;1.80;;;;;;;8.56;69.68;102228.28;5039259;28;20199;-71
2022/05/02 05:08:47;;;;;;;2.80;1.90;;;;;;;8.63;70.21;102228.69;5011834;28;20221;-70
2022/05/02 05:11:31;;;;;;;2.13;1.90;;;;;;;8.71;69.50;102231.59;5012082;28;20187;-70
2022/05/02 05:17:15;;;;;;;3.20;1.63;;;;;;;8.89;67.65;102228.25;5018002;28;20229;-71
2022/05/02 05:20:05;;;;;;;2.83;1.70;;;;;;;8.99;67.27;102225.31;5031276;28;20236;-71
2022/05/02 05:23:02;;;;;;;2.30;1.70;;;;;;;9.14;66.46;102218.41;5031807;28;20207;-71
2022/05/02 05:25:42;;;;;;;3.20;1.60;;;;;;;9.25;65.70;102214.66;5011702;28;20625;-70
2022/05/02 05:28:29;;;;;;;2.47;1.63;;;;;;;9.34;67.29;102209.97;5012041;28;20640;-71
2022/05/02 05:31:29;;;;;;;4.23;1.53;;;;;;;9.47;66.34;102212.31;5011132;28;20198;-71
2022/05/02 05:34:05;;;;;;;3.80;2.00;;;;;;;9.60;65.85;102211.16;5010808;28;20214;-71
2022/05/02 05:37:05;;;;;;;7.00;2.40;;;;;;;9.69;64.37;102204.81;5011191;28;20207;-71
2022/05/02 05:40:06;;;;;;;4.87;1.60;;;;;;;9.83;64.47;102202.84;5011618;28;20543;-71
2022/05/02 05:42:45;;;;;;;4.83;2.00;;;;;;;9.93;65.15;102205.88;5009927;28;20288;-71
2022/05/02 05:45:19;;;;;;;4.37;1.70;;;;;;;10.00;65.80;102207.03;5011846;28;20214;-71
2022/05/02 05:47:47;;;;;;;5.00;1.77;;;;;;;10.07;65.58;102202.25;5011160;28;20294;-71
2022/05/02 05:50:12;;;;;;;2.40;1.80;;;;;;;10.17;63.25;102200.94;5011351;28;20187;-71
2022/05/02 05:52:47;;;;;;;2.03;1.80;;;;;;;10.27;62.15;102203.13;5010786;28;20732;-70
2022/05/02 05:55:22;;;;;;;2.13;1.70;;;;;;;10.37;61.56;102208.66;5011544;28;20755;-72
2022/05/02 05:58:09;;;;;;;3.40;1.60;;;;;;;10.49;60.55;102213.41;5010978;28;20195;-69
2022/05/02 06:00:42;;;;;;;3.33;1.83;;;;;;;10.68;59.72;102214.25;5027360;28;20190;-70
2022/05/02 06:03:10;;;;;;;2.13;1.63;;;;;;;10.84;60.04;102213.19;5030421;28;20345;-71
2022/05/02 06:05:40;;;;;;;3.60;1.70;;;;;;;11.11;60.48;102215.13;5031007;28;20241;-71
2022/05/02 06:08:18;;;;;;;3.43;2.10;;;;;;;11.20;60.44;102214.63;5031175;28;20265;-71
2022/05/02 06:10:45;;;;;;;3.93;1.77;;;;;;;11.22;58.43;102216.44;5042590;28;20550;-71
2022/05/02 06:13:14;;;;;;;2.70;2.00;;;;;;;11.32;58.15;102209.97;5050566;28;20244;-71
2022/05/02 06:18:31;;;;;;;3.40;2.00;;;;;;;11.58;59.06;102205.03;5023277;28;20529;-72
2022/05/02 06:21:02;;;;;;;4.37;1.70;;;;;;;11.88;59.45;102210.41;5008787;28;20305;-70
2022/05/02 06:23:31;;;;;;;4.00;2.00;;;;;;;12.04;56.88;102210.13;5028715;28;20210;-72
2022/05/02 06:25:57;;;;;;;1.97;1.53;;;;;;;12.15;56.06;102208.81;5029721;28;20678;-72
2022/05/02 06:28:28;;;;;;;3.40;2.07;;;;;;;12.29;56.53;102211.03;5030307;28;20273;-70
2022/05/02 06:30:58;;;;;;;6.57;1.90;;;;;;;12.50;54.35;102218.59;5027391;28;20206;-71
2022/05/02 06:33:23;;;;;;;1.83;1.57;;;;;;;12.56;53.85;102211.09;5010239;28;20551;-71
2022/05/02 06:36:26;;;;;;;3.23;1.77;;;;;;;12.62;53.25;102206.16;5010348;28;20273;-70
2022/05/02 06:39:09;;;;;;;3.37;1.80;;;;;;;12.77;52.92;102206.66;5021433;28;20205;-69
2022/05/02 06:42:07;;;;;;;3.43;2.00;;;;;;;12.84;54.12;102206.91;5029877;28;20190;-69
2022/05/02 06:44:58;;;;;;;4.13;1.57;;;;;;;12.94;52.20;102211.50;5029722;28;20194;-70
2022/05/02 06:47:36;;;;;;;3.13;1.70;;;;;;;13.03;52.70;102210.97;5030028;28;20190;-69
2022/05/02 06:50:05;;;;;;;5.03;2.00;;;;;;;13.05;53.28;102211.00;5028851;28;20557;-68
2022/05/02 06:52:33;;;;;;;2.67;1.43;;;;;;;13.16;53.20;102207.94;5028799;28;20870;-70
2022/05/02 06:55:20;;;;;;;3.77;1.83;;;;;;;13.25;52.54;102207.38;5017041;28;20219;-71
2022/05/02 06:57:58;;;;;;;3.10;1.60;;;;;;;13.39;52.91;102206.94;5010281;28;20229;-70
2022/05/02 07:00:24;;;;;;;2.37;1.83;;;;;;;13.56;50.84;102205.75;5008296;28;20613;-69
2022/05/02 07:03:06;;;;;;;2.67;1.70;;;;;;;13.74;50.43;102206.28;5009949;28;20245;-69
2022/05/02 07:05:50;;;;;;;3.00;1.90;;;;;;;13.85;49.65;102204.00;5016909;28;20194;-70
2022/05/02 07:08:25;;;;;;;3.10;1.80;;;;;;;13.97;50.01;102205.22;5029608;28;20223;-71
2022/05/02 07:10:57;;;;;;;3.63;1.90;;;;;;;13.99;48.74;102194.97;5028220;28;20670;-71
2022/05/02 07:13:53;;;;;;;3.47;1.60;;;;;;;14.16;47.43;102202.31;5028877;28;20206;-71
2022/05/02 07:16:24;;;;;;;3.30;1.60;;;;;;;14.34;48.17;102195.09;5029185;28;20259;-71
2022/05/02 07:19:14;;;;;;;2.23;1.60;;;;;;;14.37;47.05;102195.16;5028751;28;20555;-71
2022/05/02 07:21:49;;;;;;;2.40;1.43;;;;;;;14.45;46.14;102193.63;5015574;28;20295;-71
2022/05/02 07:24:33;;;;;;;1.87;1.50;;;;;;;14.57;46.26;102193.97;5009455;28;20621;-73
2022/05/02 07:27:13;;;;;;;4.23;1.80;;;;;;;14.94;44.71;102199.16;5009900;28;20171;-71
2022/05/02 07:29:39;;;;;;;3.80;1.67;;;;;;;15.15;44.94;102184.16;5026526;28;20571;-71
2022/05/02 07:32:06;;;;;;;3.00;1.77;;;;;;;15.25;45.56;102186.13;5027535;28;20217;-71
2022/05/02 07:34:33;;;;;;;5.60;1.87;;;;;;;15.33;44.36;102189.72;5028443;28;20234;-71
2022/05/02 07:37:00;;;;;;;1.57;1.47;;;;;;;15.35;43.81;102190.69;5029245;28;20233;-71
2022/05/02 07:39:28;;;;;;;2.37;1.67;;;;;;;15.77;43.48;102188.09;5028516;28;20204;-71
2022/05/02 07:41:58;;;;;;;3.57;1.40;;;;;;;16.05;43.09;102187.78;5027979;28;20289;-71
2022/05/02 07:44:30;;;;;;;3.27;1.80;;;;;;;16.04;43.13;102186.06;5011167;28;20643;-71
2022/05/02 07:46:58;;;;;;;2.10;1.67;;;;;;;16.03;43.06;102185.19;5027317;28;20174;-71
2022/05/02 07:49:27;;;;;;;2.03;1.43;;;;;;;15.97;42.87;102195.41;5028420;28;20675;-71
2022/05/02 07:51:54;;;;;;;2.50;1.63;;;;;;;15.95;43.75;102188.47;5026845;28;20256;-71
2022/05/02 07:54:27;;;;;;;2.93;1.90;;;;;;;16.09;43.16;102189.59;5022010;28;20210;-71
2022/05/02 07:56:58;;;;;;;3.33;1.63;;;;;;;16.07;42.12;102199.91;5024881;28;20201;-71
2022/05/02 07:59:26;;;;;;;1.43;1.33;;;;;;;16.36;41.57;102187.50;5027780;28;20221;-71
2022/05/02 08:01:52;;;;;;;1.83;1.57;;;;;;;16.36;41.75;102192.69;5028534;28;20758;-71
2022/05/02 08:04:18;;;;;;;4.20;1.60;;;;;;;16.55;41.59;102195.66;5028348;28;20182;-72
2022/05/02 08:07:01;;;;;;;3.50;1.83;;;;;;;16.44;41.89;102189.41;5028740;28;20183;-73
2022/05/02 08:09:57;;;;;;;2.70;1.73;;;;;;;16.54;42.34;102191.31;5028571;28;20194;-71
2022/05/02 08:12:53;;;;;;;3.93;2.10;;;;;;;16.90;41.42;102193.63;5027621;28;20221;-71
2022/05/02 08:15:37;;;;;;;2.10;1.70;;;;;;;16.68;41.96;102186.38;5018835;28;20199;-71
2022/05/02 08:18:32;;;;;;;4.20;1.90;;;;;;;16.94;41.26;102182.47;5028923;28;20555;-71
2022/05/02 08:21:19;;;;;;;2.63;1.90;;;;;;;17.01;41.40;102179.13;5016766;28;20325;-73
2022/05/02 08:27:40;;;;;;;3.53;1.70;;;;;;;17.42;41.09;102171.13;5030251;28;20615;-74
2022/05/02 08:30:20;;;;;;;2.97;1.80;;;;;;;17.52;41.28;102167.78;5027966;28;20191;-72
2022/05/02 08:33:01;;;;;;;3.23;2.13;;;;;;;17.62;40.96;102169.63;5011623;28;20203;-71
2022/05/02 08:35:48;;;;;;;2.87;2.07;;;;;;;17.77;41.35;102164.63;5012388;28;20734;-72
2022/05/02 08:38:40;;;;;;;4.47;2.17;;;;;;;17.73;41.16;102164.59;5011826;28;20203;-72
2022/05/02 08:41:08;;;;;;;4.07;2.20;;;;;;;17.85;41.01;102164.72;5012235;28;20194;-72
2022/05/02 08:43:58;;;;;;;5.47;2.57;;;;;;;18.06;41.10;102168.38;5011629;28;20206;-72
2022/05/02 08:46:56;;;;;;;6.30;2.30;;;;;;;18.18;41.62;102165.06;5012031;28;20218;-72
2022/05/02 08:49:43;;;;;;;4.07;2.40;;;;;;;18.04;42.00;102162.34;5030248;28;20786;-72
2022/05/02 08:52:24;;;;;;;4.33;2.60;;;;;;;18.37;41.22;102160.09;5031410;28;20268;-71
2022/05/02 08:55:17;;;;;;;3.97;2.63;;;;;;;18.26;40.72;102166.88;5031029;28;20218;-72
2022/05/02 08:57:48;;;;;;;3.43;2.57;;;;;;;17.73;41.68;102167.19;5051295;28;20240;-72
2022/05/02 09:00:29;;;;;;;8.10;2.90;;;;;;;18.22;40.43;102161.63;5050621;28;20740;-72
2022/05/02 09:03:32;;;;;;;3.83;2.20;;;;;;;18.08;40.90;102160.63;5044433;28;20341;-72
2022/05/02 09:06:28;;;;;;;4.20;2.43;;;;;;;18.23;41.35;102153.03;5025101;28;20224;-71
2022/05/02 09:09:03;;;;;;;4.13;2.87;;;;;;;18.28;40.25;102152.19;5031257;28;20183;-71
2022/05/02 09:11:51;;;;;;;3.03;2.77;;;;;;;18.45;40.19;102153.25;5029561;28;20335;-72
2022/05/02 09:14:37;;;;;;;3.70;2.93;;;;;;;18.46;39.56;102146.31;5030856;28;20655;-73
2022/05/02 09:17:25;;;;;;;4.57;3.00;;;;;;;18.40;40.37;102148.88;5028639;28;20316;-69
2022/05/02 09:20:13;;;;;;;3.13;2.50;;;;;;;18.70;39.91;102136.16;5025171;28;20647;-69
2022/05/02 09:23:27;;;;;;;4.63;3.00;;;;;;;18.89;40.47;102141.44;5029140;28;20713;-70
2022/05/02 09:26:19;;;;;;;2.90;2.60;;;;;;;19.27;39.53;102128.72;5029271;28;20205;-69
2022/05/02 09:29:13;;;;;;;4.90;2.97;;;;;;;19.63;38.88;102134.91;5030071;28;20194;-70
2022/05/02 09:31:57;;;;;;;4.03;3.13;;;;;;;19.86;38.01;102125.44;5022729;28;20218;-71
2022/05/02 09:35:07;;;;;;;4.30;3.30;;;;;;;20.25;37.33;102127.25;5016786;28;20326;-69
2022/05/02 09:37:40;;;;;;;5.17;3.70;;;;;;;20.80;35.35;102119.44;5010257;28;20231;-69
2022/05/02 09:40:15;;;;;;;5.07;3.20;;;;;;;20.46;35.62;102127.28;5009798;28;20191;-70
2022/05/02 09:43:14;;;;;;;5.53;3.77;;;;;;;20.45;35.85;102116.00;5014156;28;20214;-69
2022/05/02 09:49:36;;;;;;;6.20;4.87;;;;;;;19.85;35.60;102112.47;5030203;28;20186;-71
2022/05/02 09:52:12;;;;;;;6.60;4.80;;;;;;;20.24;34.64;102109.94;5029440;28;20600;-69
2022/05/02 09:58:15;;;;;;;6.17;4.73;;;;;;;19.87;37.15;102106.41;5024404;28;20190;-69
2022/05/02 10:01:08;;;;;;;6.10;4.80;;;;;;;20.09;36.01;102102.97;5028547;28;20273;-70
2022/05/02 10:03:37;;;;;;;5.27;4.50;;;;;;;20.02;36.33;102098.59;5029430;28;20210;-72
2022/05/02 10:06:13;;;;;;;5.80;4.97;;;;;;;20.29;34.40;102100.38;5029729;28;20193;-69
2022/05/02 10:09:02;;;;;;;7.23;4.90;;;;;;;20.27;34.35;102099.53;5029826;28;20678;-71
2022/05/02 10:11:38;;;;;;;6.23;5.20;;;;;;;20.82;33.70;102093.38;5028063;28;20189;-71
2022/05/02 10:14:41;;;;;;;6.53;5.67;;;;;;;20.42;33.64;102091.72;5029508;28;20578;-72
2022/05/02 10:17:17;;;;;;;7.60;6.80;;;;;;;19.83;33.89;102091.66;5028234;28;20212;-72
2022/05/02 10:20:15;;;;;;;6.63;6.03;;;;;;;19.63;34.19;102093.31;5029505;28;20209;-71
2022/05/02 10:23:15;;;;;;;7.60;5.73;;;;;;;19.56;34.63;102090.72;5029147;28;20218;-71
2022/05/02 10:25:59;;;;;;;5.87;5.27;;;;;;;21.10;33.76;102084.66;5029495;28;20174;-71
2022/05/02 10:29:02;;;;;;;7.00;5.20;;;;;;;21.47;34.09;102081.00;5029373;28;20202;-72
2022/05/02 10:31:32;;;;;;;6.77;4.90;;;;;;;21.55;33.35;102084.41;5009232;28;20307;-73
2022/05/02 10:34:02;;;;;;;5.87;5.27;;;;;;;21.16;32.00;102077.69;5009494;28;20171;-71
2022/05/02 10:36:41;;;;;;;5.40;4.77;;;;;;;20.80;33.25;102069.06;5009536;28;20207;-73
2022/05/02 10:39:32;;;;;;;6.30;4.97;;;;;;;21.73;33.36;102068.69;5009031;28;20711;-73
2022/05/02 10:41:58;;;;;;;7.00;5.60;;;;;;;21.46;31.84;102061.88;5007993;28;20704;-72
2022/05/02 10:44:58;;;;;;;5.33;4.87;;;;;;;22.34;32.92;102056.91;5008982;28;20273;-72
2022/05/02 10:47:26;;;;;;;6.70;5.13;;;;;;;22.51;32.21;102049.81;5009864;28;20555;-72
2022/05/02 10:50:20;;;;;;;5.83;5.23;;;;;;;22.53;31.57;102058.50;5008807;28;20187;-72
2022/05/02 10:52:46;;;;;;;7.43;5.77;;;;;;;22.79;30.52;102045.16;5009326;28;20202;-72
2022/05/02 10:55:30;;;;;;;6.50;4.87;;;;;;;22.70;30.17;102040.03;5016741;28;20721;-72
2022/05/02 10:58:01;;;;;;;7.83;5.63;;;;;;;22.19;32.26;102030.94;5027703;28;20190;-74
2022/05/02 11:00:28;;;;;;;7.30;6.60;;;;;;;20.71;33.06;102043.06;5027902;28;20193;-72
2022/05/02 11:03:22;;;;;;;9.47;6.13;;;;;;;21.36;33.13;102038.47;5026842;28;20214;-73
2022/05/02 11:06:21;;;;;;;9.83;7.03;;;;;;;21.39;32.18;102041.94;5027023;28;20222;-76
2022/05/02 11:08:53;;;;;;;5.93;5.13;;;;;;;21.99;32.63;102030.25;5009965;28;20183;-75
2022/05/02 11:11:46;;;;;;;7.27;6.47;;;;;;;21.01;33.21;102038.63;5021854;28;20220;-77
2022/05/02 11:14:30;;;;;;;6.87;5.63;;;;;;;21.55;34.47;102029.66;5029271;28;20178;-76
2022/05/02 11:17:07;;;;;;;6.50;5.80;;;;;;;21.84;33.82;102038.22;5027802;28;20623;-75
2022/05/02 11:22:56;;;;;;;8.17;6.33;;;;;;;22.38;31.83;102030.75;5017032;28;20211;-75
2022/05/02 11:25:26;;;;;;;8.40;5.97;;;;;;;22.29;31.16;102023.00;5024771;28;20695;-76
2022/05/02 11:28:03;;;;;;;8.10;7.30;;;;;;;21.53;31.30;102021.00;5029102;28;20378;-72
2022/05/02 11:30:56;;;;;;;9.37;7.27;;;;;;;20.87;33.34;102014.34;5022503;28;20284;-74
2022/05/02 11:33:38;;;;;;;8.40;7.03;;;;;;;21.20;33.22;102013.38;5040382;28;20300;-74
2022/05/02 11:36:09;;;;;;;7.07;6.37;;;;;;;21.68;32.92;102011.34;5044336;28;20203;-74
2022/05/02 11:39:01;;;;;;;6.67;5.87;;;;;;;22.47;31.43;102013.31;5028230;28;20336;-74
2022/05/02 11:41:29;;;;;;;8.70;6.07;;;;;;;22.60;31.25;102010.53;5026791;28;20198;-74
2022/05/02 11:44:04;;;;;;;7.53;6.47;;;;;;;22.65;31.06;102013.94;5028560;28;20683;-74
2022/05/02 11:46:31;;;;;;;8.47;6.37;;;;;;;22.88;31.20;102005.88;5028271;28;20166;-74
2022/05/02 11:49:34;;;;;;;7.47;6.27;;;;;;;22.77;30.97;102010.34;5029295;28;20205;-74
2022/05/02 11:52:01;;;;;;;8.57;6.57;;;;;;;23.26;30.77;102001.91;5028633;28;20210;-74
2022/05/02 11:54:27;;;;;;;8.60;6.90;;;;;;;22.95;31.87;101997.94;5021588;28;20218;-74
2022/05/02 11:56:58;;;;;;;7.20;6.33;;;;;;;21.74;31.44;102000.88;5011436;28;20219;-74
2022/05/02 11:59:32;;;;;;;7.07;6.03;;;;;;;21.24;32.52;102002.91;5013171;28;20187;-74
2022/05/02 12:02:03;;;;;;;7.43;6.60;;;;;;;21.12;34.03;101989.09;5021374;28;20301;-74
2022/05/02 12:04:32;;;;;;;7.13;6.43;;;;;;;22.35;32.65;101989.00;5033938;28;20178;-74
2022/05/02 12:07:01;;;;;;;8.20;6.40;;;;;;;21.73;33.11;101986.13;5052674;28;20186;-74
2022/05/02 12:09:28;;;;;;;8.47;6.87;;;;;;;22.25;32.55;101983.91;5038003;28;20206;-74
2022/05/02 12:11:55;;;;;;;9.93;6.77;;;;;;;22.10;32.10;101982.31;5021391;28;20230;-75
2022/05/02 12:14:21;;;;;;;7.43;6.73;;;;;;;21.82;32.29;101983.44;5012107;28;20191;-74
2022/05/02 12:17:06;;;;;;;8.10;6.40;;;;;;;21.68;33.70;101980.03;5013121;28;20206;-75
2022/05/02 12:19:33;;;;;;;7.50;6.70;;;;;;;22.34;33.43;101971.63;5011013;28;20679;-75
2022/05/02 12:22:02;;;;;;;8.13;6.47;;;;;;;23.25;30.67;101967.94;5012639;28;20217;-75